Time;durP1;ratioP1;P1;durP2;ratioP2;P2;SDS_P1;SDS_P2;PMS_P1;PMS_P2;Temp;Humidity;BMP_temperature;BMP_pressure;BME280_temperature;BME280_humidity;BME280_pressure;Samples;Min_cycle;Max_cycle;Signal;HPM_P1;HPM_P2
2022/04/07 00:02:19;;;;;;;4.73;3.63;;;;;;;10.03;73.25;98835.06;5080833;28;20241;-84
2022/04/07 00:04:46;;;;;;;4.00;3.60;;;;;;;9.99;73.43;98835.22;5080582;28;20210;-84
2022/04/07 00:07:13;;;;;;;4.23;3.93;;;;;;;9.88;73.13;98825.28;5082139;28;20258;-84
2022/04/07 00:09:39;;;;;;;4.20;3.80;;;;;;;9.92;73.20;98819.84;5080803;28;20589;-82
2022/04/07 00:12:06;;;;;;;4.33;3.90;;;;;;;9.96;73.15;98832.78;5090803;28;20201;-84
2022/04/07 00:14:35;;;;;;;4.23;3.67;;;;;;;9.95;72.96;98829.31;5081434;28;20239;-84
2022/04/07 00:17:04;;;;;;;3.83;3.53;;;;;;;9.99;72.62;98828.28;5080527;28;20210;-83
2022/04/07 00:19:30;;;;;;;4.07;3.77;;;;;;;10.03;72.88;98818.53;5080477;28;20286;-83
2022/04/07 00:21:57;;;;;;;4.33;4.00;;;;;;;9.96;72.25;98817.13;5080205;28;20208;-84
2022/04/07 00:24:25;;;;;;;4.20;3.90;;;;;;;9.95;72.81;98803.25;5079829;28;20201;-84
2022/04/07 00:26:52;;;;;;;4.30;3.90;;;;;;;9.86;73.01;98804.47;5080775;28;20208;-84
2022/04/07 00:29:19;;;;;;;5.33;3.83;;;;;;;9.77;72.91;98788.38;5080596;28;20225;-83
2022/04/07 00:31:45;;;;;;;4.07;3.70;;;;;;;9.83;73.30;98775.09;5080807;28;20213;-83
2022/04/07 00:34:16;;;;;;;6.60;4.57;;;;;;;9.79;73.23;98776.13;5080192;28;20220;-84
2022/04/07 00:36:42;;;;;;;4.13;3.73;;;;;;;9.77;73.37;98770.16;5080606;28;20567;-84
2022/04/07 00:39:08;;;;;;;4.70;4.23;;;;;;;9.77;73.36;98784.00;5079729;28;20224;-83
2022/04/07 00:41:37;;;;;;;3.77;3.47;;;;;;;9.77;73.03;98783.19;5087022;28;20208;-82
2022/04/07 00:44:05;;;;;;;3.80;3.50;;;;;;;9.72;73.28;98770.34;5085430;28;20214;-82
2022/04/07 00:46:32;;;;;;;4.37;3.97;;;;;;;9.67;72.55;98760.13;5078851;28;20205;-81
2022/04/07 00:48:59;;;;;;;3.60;3.10;;;;;;;9.75;72.83;98765.00;5078581;28;20610;-82
2022/04/07 00:51:27;;;;;;;4.07;3.70;;;;;;;9.68;72.09;98781.81;5079377;28;20590;-83
2022/04/07 00:53:54;;;;;;;3.70;3.37;;;;;;;9.70;71.96;98786.03;5078588;28;20601;-85
2022/04/07 00:56:20;;;;;;;3.70;3.20;;;;;;;9.76;72.25;98777.13;5078882;28;20737;-80
2022/04/07 00:58:47;;;;;;;3.20;3.00;;;;;;;9.76;72.15;98779.72;5078675;28;20291;-83
2022/04/07 01:01:20;;;;;;;3.70;3.30;;;;;;;9.79;72.00;98760.50;5078733;28;20230;-83
2022/04/07 01:03:47;;;;;;;4.00;3.60;;;;;;;9.77;72.07;98757.97;5077770;28;20209;-83
2022/04/07 01:06:21;;;;;;;3.50;3.30;;;;;;;9.69;72.32;98754.84;5079513;28;20205;-81
2022/04/07 01:08:48;;;;;;;3.83;3.53;;;;;;;9.70;72.30;98748.72;5089216;28;20221;-81
2022/04/07 01:11:15;;;;;;;4.27;3.57;;;;;;;9.73;72.63;98752.06;5094508;28;20204;-82
2022/04/07 01:13:45;;;;;;;3.63;3.33;;;;;;;9.74;72.65;98747.69;5094141;28;20256;-83
2022/04/07 01:16:12;;;;;;;4.03;3.63;;;;;;;9.71;75.11;98706.13;5106346;28;20295;-81
2022/04/07 01:18:39;;;;;;;4.30;4.00;;;;;;;9.63;78.26;98601.41;5099928;28;20285;-82
2022/04/07 01:21:07;;;;;;;4.50;4.10;;;;;;;9.54;80.22;98501.94;5099814;28;20228;-81
2022/04/07 01:23:36;;;;;;;4.80;4.37;;;;;;;9.34;81.24;98476.81;5100929;28;20563;-81
2022/04/07 01:26:04;;;;;;;4.03;3.73;;;;;;;9.33;82.68;98423.03;5100788;28;20308;-83
2022/04/07 01:28:30;;;;;;;4.43;4.03;;;;;;;9.17;83.32;98397.78;5100729;28;20281;-83
2022/04/07 01:30:57;;;;;;;4.30;3.90;;;;;;;9.14;84.07;98375.34;5100525;28;20204;-84
2022/04/07 01:33:23;;;;;;;5.00;3.40;;;;;;;9.18;84.40;98334.38;5100179;28;20208;-82
2022/04/07 01:35:50;;;;;;;4.53;4.07;;;;;;;9.21;84.60;98324.69;5100828;28;20204;-83
2022/04/07 01:38:18;;;;;;;3.43;3.13;;;;;;;9.08;84.25;98342.66;5100234;28;20714;-83
2022/04/07 01:40:45;;;;;;;4.03;3.63;;;;;;;9.09;85.15;98313.09;5099889;28;20604;-84
2022/04/07 01:43:15;;;;;;;8.63;3.93;;;;;;;9.13;85.38;98296.41;5092071;28;20201;-82
2022/04/07 01:45:43;;;;;;;4.47;4.10;;;;;;;8.93;85.87;98273.09;5080860;28;20194;-83
2022/04/07 01:48:10;;;;;;;4.13;3.63;;;;;;;8.95;86.19;98273.88;5079927;28;20722;-82
2022/04/07 01:50:38;;;;;;;3.80;3.50;;;;;;;8.87;85.21;98300.25;5078383;28;20211;-83
2022/04/07 01:53:05;;;;;;;4.50;4.10;;;;;;;8.91;86.35;98278.38;5079778;28;20262;-82
2022/04/07 01:55:32;;;;;;;4.47;4.10;;;;;;;8.98;86.42;98265.06;5079246;28;20206;-81
2022/04/07 01:57:59;;;;;;;4.27;3.97;;;;;;;8.99;85.27;98300.59;5078940;28;20211;-83
2022/04/07 02:00:27;;;;;;;5.27;4.10;;;;;;;9.00;86.92;98256.28;5078253;28;20233;-83
2022/04/07 02:02:54;;;;;;;5.07;3.60;;;;;;;8.87;87.67;98227.41;5077587;28;20585;-83
2022/04/07 02:05:20;;;;;;;4.43;4.03;;;;;;;8.84;88.12;98204.16;5077508;28;20219;-82
2022/04/07 02:07:50;;;;;;;3.73;3.43;;;;;;;8.82;88.35;98189.50;5078265;28;20209;-83
2022/04/07 02:10:17;;;;;;;3.70;3.40;;;;;;;8.73;88.37;98206.41;5077981;28;20209;-83
2022/04/07 02:12:43;;;;;;;3.93;3.53;;;;;;;8.74;88.59;98187.28;5086351;28;20210;-82
2022/04/07 02:15:11;;;;;;;3.67;3.33;;;;;;;8.71;88.67;98180.47;5082264;28;20200;-82
2022/04/07 02:17:40;;;;;;;3.07;2.77;;;;;;;8.69;87.96;98177.09;5078149;28;20655;-84
2022/04/07 02:20:08;;;;;;;2.97;2.77;;;;;;;8.66;88.31;98194.59;5077634;28;20262;-84
2022/04/07 02:22:36;;;;;;;2.87;2.67;;;;;;;8.67;86.34;98210.13;5077924;28;20202;-81
2022/04/07 02:25:04;;;;;;;2.90;2.27;;;;;;;8.72;87.36;98209.91;5077970;28;20251;-84
2022/04/07 02:27:36;;;;;;;2.57;2.13;;;;;;;8.72;86.83;98230.72;5077999;28;20251;-83
2022/04/07 02:30:03;;;;;;;2.20;2.00;;;;;;;8.75;86.68;98228.81;5077812;28;20738;-84
2022/04/07 02:32:30;;;;;;;2.13;1.90;;;;;;;8.70;85.96;98250.75;5079909;28;20232;-83
2022/04/07 02:34:57;;;;;;;1.77;1.67;;;;;;;8.69;86.77;98228.28;5098380;28;20212;-83
2022/04/07 02:37:25;;;;;;;1.70;1.57;;;;;;;8.58;87.63;98191.53;5101023;28;20204;-81
2022/04/07 02:39:51;;;;;;;3.00;1.47;;;;;;;8.64;88.46;98154.81;5099313;28;20291;-83
2022/04/07 02:42:17;;;;;;;1.20;1.10;;;;;;;8.51;88.30;98144.19;5098006;28;20273;-83
2022/04/07 02:44:44;;;;;;;1.33;1.20;;;;;;;8.37;87.53;98156.97;5098009;28;20248;-83
2022/04/07 02:47:10;;;;;;;1.43;1.23;;;;;;;8.43;87.62;98154.09;5097561;28;20200;-82
2022/04/07 02:49:39;;;;;;;1.27;1.13;;;;;;;8.40;87.78;98165.44;5097430;28;20274;-81
2022/04/07 02:52:08;;;;;;;1.87;1.47;;;;;;;8.43;87.15;98156.69;5097308;28;20204;-83
2022/04/07 02:54:34;;;;;;;1.10;1.00;;;;;;;8.43;87.68;98146.31;5097402;28;20253;-83
2022/04/07 02:57:01;;;;;;;2.67;1.50;;;;;;;8.45;86.78;98157.47;5098066;28;20208;-83
2022/04/07 02:59:27;;;;;;;1.00;1.00;;;;;;;8.50;86.33;98168.47;5097359;28;20231;-83
2022/04/07 03:01:56;;;;;;;1.80;1.00;;;;;;;8.37;86.45;98169.97;5097423;28;20644;-82
2022/04/07 03:04:24;;;;;;;1.60;0.90;;;;;;;8.41;86.25;98166.28;5089152;28;20667;-81
2022/04/07 03:06:50;;;;;;;0.80;0.80;;;;;;;8.48;86.15;98173.78;5098851;28;20200;-83
2022/04/07 03:09:18;;;;;;;1.70;1.33;;;;;;;8.49;85.82;98172.84;5098395;28;20294;-83
2022/04/07 03:11:46;;;;;;;1.00;0.90;;;;;;;8.53;85.11;98191.75;5097941;28;20693;-82
2022/04/07 03:14:12;;;;;;;1.83;1.00;;;;;;;8.44;84.96;98202.56;5097607;28;20214;-83
2022/04/07 03:16:39;;;;;;;1.47;1.10;;;;;;;8.52;85.23;98177.91;5098507;28;20212;-81
2022/04/07 03:19:06;;;;;;;0.97;0.93;;;;;;;8.55;85.34;98182.13;5098186;28;20220;-83
2022/04/07 03:21:32;;;;;;;1.20;1.10;;;;;;;8.55;84.08;98192.53;5098185;28;20566;-83
2022/04/07 03:23:59;;;;;;;1.47;0.90;;;;;;;8.62;84.83;98186.13;5097379;28;20732;-83
2022/04/07 03:26:29;;;;;;;1.10;1.00;;;;;;;8.60;84.03;98174.91;5098766;28;20848;-84
2022/04/07 03:28:55;;;;;;;1.23;1.03;;;;;;;8.64;83.69;98194.69;5098690;28;20269;-81
2022/04/07 03:31:22;;;;;;;1.17;1.00;;;;;;;8.67;83.50;98209.31;5098594;28;20196;-82
2022/04/07 03:33:48;;;;;;;1.27;1.00;;;;;;;8.58;82.71;98222.72;5098683;28;20670;-83
2022/04/07 03:36:15;;;;;;;1.17;1.00;;;;;;;8.60;82.92;98236.50;5098893;28;20203;-84
2022/04/07 03:38:41;;;;;;;1.17;1.00;;;;;;;8.59;82.38;98224.44;5099229;28;20273;-83
2022/04/07 03:41:08;;;;;;;2.17;1.37;;;;;;;8.62;83.52;98187.84;5106231;28;20253;-83
2022/04/07 03:43:35;;;;;;;2.27;1.20;;;;;;;8.57;82.22;98205.44;5106957;28;20200;-82
2022/04/07 03:46:02;;;;;;;2.17;1.17;;;;;;;8.65;82.01;98216.34;5106542;28;20204;-83
2022/04/07 03:48:28;;;;;;;5.00;1.30;;;;;;;8.63;81.43;98223.38;5107061;28;20228;-83
2022/04/07 03:50:56;;;;;;;3.00;1.40;;;;;;;8.57;80.57;98267.88;5110964;28;20226;-81
2022/04/07 03:53:22;;;;;;;1.43;1.30;;;;;;;8.67;80.65;98264.75;5114959;28;20191;-79
2022/04/07 03:55:49;;;;;;;1.63;1.00;;;;;;;8.67;81.12;98272.56;5115186;28;20218;-80
2022/04/07 03:58:15;;;;;;;2.13;1.23;;;;;;;8.70;80.20;98256.81;5115744;28;20229;-81
2022/04/07 04:00:43;;;;;;;2.57;1.43;;;;;;;8.74;79.84;98273.09;5115382;28;20231;-79
2022/04/07 04:03:10;;;;;;;1.63;1.13;;;;;;;8.78;79.58;98277.28;5115406;28;20204;-79
2022/04/07 04:05:36;;;;;;;2.07;1.23;;;;;;;8.85;80.09;98262.22;5115004;28;20200;-80
2022/04/07 04:08:03;;;;;;;1.53;1.10;;;;;;;8.77;79.88;98269.53;5115237;28;20198;-79
2022/04/07 04:10:29;;;;;;;1.37;1.13;;;;;;;8.82;79.28;98278.81;5115121;28;20234;-79
2022/04/07 04:12:55;;;;;;;3.10;1.30;;;;;;;8.84;78.94;98279.59;5114382;28;20211;-80
2022/04/07 04:15:23;;;;;;;1.07;0.77;;;;;;;8.83;78.75;98283.09;5116864;28;20200;-80
2022/04/07 04:17:51;;;;;;;2.33;1.40;;;;;;;8.91;79.61;98269.72;5117231;28;20233;-80
2022/04/07 04:20:17;;;;;;;1.53;1.10;;;;;;;8.90;78.26;98281.91;5108239;28;20233;-80
2022/04/07 04:22:44;;;;;;;1.10;0.90;;;;;;;8.93;76.93;98299.94;5098709;28;20277;-81
2022/04/07 04:25:16;;;;;;;1.03;0.93;;;;;;;8.97;77.12;98323.25;5098053;28;20208;-83
2022/04/07 04:27:42;;;;;;;2.23;1.00;;;;;;;9.01;76.98;98333.44;5098895;28;20230;-83
2022/04/07 04:30:10;;;;;;;1.67;1.10;;;;;;;9.01;76.04;98349.03;5099111;28;20226;-81
2022/04/07 04:32:36;;;;;;;1.47;1.10;;;;;;;9.10;76.35;98340.81;5099382;28;20212;-78
2022/04/07 04:35:05;;;;;;;2.13;0.93;;;;;;;9.06;75.81;98344.47;5091846;28;20248;-83
2022/04/07 04:37:33;;;;;;;2.90;1.10;;;;;;;9.07;76.83;98333.13;5077944;28;20250;-82
2022/04/07 04:39:59;;;;;;;1.63;1.10;;;;;;;9.11;76.19;98331.25;5077854;28;20252;-79
2022/04/07 04:42:25;;;;;;;1.73;1.00;;;;;;;9.13;76.63;98306.81;5077702;28;20652;-81
2022/04/07 04:44:52;;;;;;;1.00;1.00;;;;;;;9.15;75.89;98332.78;5077436;28;20629;-83
2022/04/07 04:47:18;;;;;;;1.50;1.10;;;;;;;9.13;75.33;98345.88;5078476;28;20212;-83
2022/04/07 04:49:45;;;;;;;1.63;1.00;;;;;;;9.13;75.86;98340.66;5078805;28;20228;-83
2022/04/07 04:52:13;;;;;;;0.90;0.90;;;;;;;9.15;75.94;98338.81;5078036;28;20201;-83
2022/04/07 04:54:40;;;;;;;1.27;0.97;;;;;;;9.16;75.61;98321.47;5078723;28;20197;-83
2022/04/07 04:57:07;;;;;;;1.53;1.00;;;;;;;9.25;75.66;98335.78;5078517;28;20698;-80
2022/04/07 04:59:33;;;;;;;2.53;1.23;;;;;;;9.23;75.34;98327.22;5079121;28;20243;-81
2022/04/07 05:02:00;;;;;;;1.73;0.97;;;;;;;9.22;76.21;98328.16;5077365;28;20275;-84
2022/04/07 05:04:26;;;;;;;0.90;0.90;;;;;;;9.21;75.20;98337.69;5093826;28;20261;-83
2022/04/07 05:06:53;;;;;;;2.97;1.23;;;;;;;9.25;75.58;98320.19;5078575;28;20765;-82
2022/04/07 05:09:20;;;;;;;1.53;1.00;;;;;;;9.22;76.21;98320.34;5084855;28;20221;-84
2022/04/07 05:11:47;;;;;;;1.83;0.80;;;;;;;9.25;75.00;98344.44;5077400;28;20821;-81
2022/04/07 05:14:13;;;;;;;1.53;0.77;;;;;;;9.31;74.90;98344.16;5077612;28;20205;-82
2022/04/07 05:16:39;;;;;;;3.10;1.13;;;;;;;9.33;74.07;98349.28;5076909;28;20214;-82
2022/04/07 05:19:06;;;;;;;2.47;0.90;;;;;;;9.37;73.89;98339.56;5076872;28;20313;-82
2022/04/07 05:21:33;;;;;;;1.67;0.80;;;;;;;9.42;73.09;98369.69;5077558;28;20225;-81
2022/04/07 05:24:02;;;;;;;2.13;0.80;;;;;;;9.43;73.30;98360.09;5077556;28;20255;-81
2022/04/07 05:26:29;;;;;;;2.20;0.80;;;;;;;9.39;72.77;98387.22;5077450;28;20270;-82
2022/04/07 05:28:58;;;;;;;0.90;0.80;;;;;;;9.39;72.77;98361.19;5076911;28;20225;-82
2022/04/07 05:31:24;;;;;;;1.60;0.93;;;;;;;9.42;72.83;98353.22;5077323;28;20668;-83
2022/04/07 05:33:50;;;;;;;0.80;0.80;;;;;;;9.40;73.20;98350.69;5086107;28;20247;-80
2022/04/07 05:36:17;;;;;;;1.93;1.40;;;;;;;9.47;73.55;98352.06;5078323;28;20208;-84
2022/04/07 05:38:44;;;;;;;1.97;1.07;;;;;;;9.44;72.88;98347.03;5077446;28;20228;-83
2022/04/07 05:41:10;;;;;;;0.63;0.63;;;;;;;9.43;73.52;98341.88;5077163;28;20248;-81
2022/04/07 05:43:38;;;;;;;1.33;0.77;;;;;;;9.47;73.56;98339.06;5077758;28;20254;-84
2022/04/07 05:46:04;;;;;;;1.57;0.90;;;;;;;9.58;72.45;98341.16;5077998;28;20212;-83
2022/04/07 05:48:31;;;;;;;1.53;0.67;;;;;;;9.69;73.46;98324.97;5078401;28;20309;-81
2022/04/07 05:50:57;;;;;;;1.80;0.87;;;;;;;9.71;73.20;98329.22;5077714;28;20229;-84
2022/04/07 05:53:24;;;;;;;0.70;0.60;;;;;;;9.71;73.53;98297.09;5077833;28;20262;-83
2022/04/07 05:55:50;;;;;;;1.63;0.80;;;;;;;9.69;72.40;98346.69;5077311;28;20940;-83
2022/04/07 05:58:17;;;;;;;2.30;1.07;;;;;;;9.73;72.06;98331.72;5078216;28;20639;-84
2022/04/07 06:00:45;;;;;;;1.20;0.93;;;;;;;9.72;72.05;98328.28;5082005;28;20346;-83
2022/04/07 06:03:11;;;;;;;0.70;0.70;;;;;;;9.84;72.50;98299.94;5087813;28;20239;-82
2022/04/07 06:05:38;;;;;;;1.27;0.77;;;;;;;9.94;72.62;98315.03;5088072;28;20200;-84
2022/04/07 06:08:05;;;;;;;0.87;0.67;;;;;;;10.08;72.14;98324.75;5097241;28;20628;-83
2022/04/07 06:10:32;;;;;;;1.23;0.60;;;;;;;10.10;70.15;98375.03;5097334;28;20205;-82
2022/04/07 06:12:58;;;;;;;1.53;0.60;;;;;;;10.16;70.61;98360.84;5097050;28;20208;-84
2022/04/07 06:15:24;;;;;;;1.10;1.00;;;;;;;10.26;71.36;98342.97;5097397;28;20214;-84
2022/04/07 06:17:54;;;;;;;2.13;0.50;;;;;;;10.22;70.20;98365.75;5096840;28;20200;-83
2022/04/07 06:20:21;;;;;;;1.63;0.70;;;;;;;10.28;70.20;98362.84;5097106;28;20210;-83
2022/04/07 06:22:47;;;;;;;1.73;0.50;;;;;;;10.35;69.76;98360.81;5097254;28;20312;-82
2022/04/07 06:25:14;;;;;;;2.30;1.03;;;;;;;10.43;69.69;98363.84;5097089;28;20655;-83
2022/04/07 06:27:44;;;;;;;1.63;0.90;;;;;;;10.43;68.86;98376.06;5099127;28;20679;-83
2022/04/07 06:30:12;;;;;;;0.90;0.67;;;;;;;10.48;68.58;98402.72;5099196;28;20261;-83
2022/04/07 06:32:39;;;;;;;1.73;0.83;;;;;;;10.55;67.70;98422.38;5099303;28;20623;-83
2022/04/07 06:35:09;;;;;;;3.60;0.70;;;;;;;10.58;67.45;98416.16;5089023;28;20199;-81
2022/04/07 06:37:45;;;;;;;1.23;0.70;;;;;;;10.53;67.61;98406.78;5085997;28;20200;-83
2022/04/07 06:40:13;;;;;;;1.90;0.73;;;;;;;10.55;68.39;98351.09;5086563;28;20200;-82
2022/04/07 06:42:39;;;;;;;1.07;0.90;;;;;;;10.63;68.60;98354.16;5085137;28;20274;-83
2022/04/07 06:45:06;;;;;;;1.13;0.70;;;;;;;10.69;68.33;98351.22;5085001;28;20196;-84
2022/04/07 06:47:38;;;;;;;1.63;1.07;;;;;;;10.78;68.25;98334.22;5087260;28;20201;-83
2022/04/07 06:50:07;;;;;;;4.20;0.70;;;;;;;10.71;67.47;98339.75;5086883;28;20304;-81
2022/04/07 06:52:33;;;;;;;2.53;0.70;;;;;;;10.70;68.04;98330.25;5085944;28;20202;-83
2022/04/07 06:55:00;;;;;;;1.40;0.57;;;;;;;10.63;67.66;98321.06;5083776;28;20211;-82
2022/04/07 06:57:26;;;;;;;2.00;0.80;;;;;;;10.60;68.40;98309.94;5093301;28;20234;-81
2022/04/07 06:59:53;;;;;;;1.57;0.70;;;;;;;10.58;68.80;98294.38;5097162;28;20228;-82
2022/04/07 07:02:19;;;;;;;2.17;0.70;;;;;;;10.61;68.74;98275.94;5096343;28;20221;-83
2022/04/07 07:04:45;;;;;;;1.50;0.60;;;;;;;10.57;68.75;98271.84;5090434;28;20259;-83
2022/04/07 07:07:13;;;;;;;1.50;0.63;;;;;;;10.49;68.81;98260.97;5097430;28;20245;-82
2022/04/07 07:09:39;;;;;;;2.17;0.73;;;;;;;10.58;69.75;98241.34;5095653;28;20230;-79
2022/04/07 07:12:06;;;;;;;1.43;0.60;;;;;;;10.56;69.92;98223.19;5086872;28;20194;-81
2022/04/07 07:14:33;;;;;;;1.43;0.60;;;;;;;10.64;69.93;98205.31;5087327;28;20406;-82
2022/04/07 07:16:59;;;;;;;1.17;0.57;;;;;;;10.53;68.84;98234.63;5086647;28;20197;-81
2022/04/07 07:19:28;;;;;;;0.80;0.50;;;;;;;10.37;69.35;98240.78;5085332;28;20217;-85
2022/04/07 07:21:54;;;;;;;0.80;0.60;;;;;;;10.37;69.54;98201.66;5085200;28;20653;-83
2022/04/07 07:24:23;;;;;;;0.53;0.50;;;;;;;10.41;70.38;98174.47;5087206;28;20276;-82
2022/04/07 07:26:49;;;;;;;1.60;0.60;;;;;;;10.40;70.37;98171.00;5083918;28;20243;-81
2022/04/07 07:29:16;;;;;;;0.87;0.40;;;;;;;10.48;70.88;98153.16;5084309;28;20212;-81
2022/04/07 07:31:42;;;;;;;0.53;0.40;;;;;;;10.57;70.73;98138.78;5086529;28;20200;-81
2022/04/07 07:34:09;;;;;;;0.63;0.37;;;;;;;10.61;70.52;98131.63;5084417;28;20208;-82
2022/04/07 07:36:38;;;;;;;0.60;0.50;;;;;;;10.66;71.34;98119.16;5085882;28;20231;-84
2022/04/07 07:39:07;;;;;;;0.77;0.47;;;;;;;10.68;71.21;98099.03;5084365;28;20221;-83
2022/04/07 07:41:37;;;;;;;0.97;0.40;;;;;;;10.68;71.29;98076.41;5085285;28;20249;-81
2022/04/07 07:44:03;;;;;;;0.63;0.40;;;;;;;10.69;70.66;98104.16;5088181;28;20668;-82
2022/04/07 07:46:30;;;;;;;0.40;0.40;;;;;;;10.66;70.81;98100.88;5084958;28;20286;-81
2022/04/07 07:48:57;;;;;;;0.43;0.33;;;;;;;10.62;71.33;98083.72;5086259;28;20733;-82
2022/04/07 07:51:24;;;;;;;0.90;0.47;;;;;;;10.68;71.60;98039.03;5096173;28;20207;-81
2022/04/07 07:53:50;;;;;;;0.30;0.30;;;;;;;10.71;71.31;98052.75;5099380;28;20692;-80
2022/04/07 07:56:19;;;;;;;0.67;0.30;;;;;;;10.63;71.08;98048.91;5099450;28;20204;-82
2022/04/07 07:58:56;;;;;;;0.33;0.33;;;;;;;10.70;70.99;98034.56;5091125;28;20232;-82
2022/04/07 08:01:22;;;;;;;0.53;0.50;;;;;;;10.79;71.27;98004.50;5095447;28;20618;-82
2022/04/07 08:03:50;;;;;;;0.47;0.40;;;;;;;10.78;70.78;98031.50;5094858;28;20216;-83
2022/04/07 08:06:16;;;;;;;0.20;0.20;;;;;;;10.87;70.05;98050.06;5095365;28;20285;-80
2022/04/07 08:08:43;;;;;;;1.20;0.60;;;;;;;11.02;70.32;98026.59;5098891;28;20227;-82
2022/04/07 08:11:12;;;;;;;0.50;0.37;;;;;;;11.12;70.27;98009.47;5098296;28;20651;-82
2022/04/07 08:13:39;;;;;;;0.93;0.50;;;;;;;11.31;70.08;98035.31;5098953;28;20669;-82
2022/04/07 08:16:07;;;;;;;0.57;0.30;;;;;;;11.48;69.45;98055.19;5098599;28;20699;-80
2022/04/07 08:18:34;;;;;;;0.30;0.30;;;;;;;11.50;69.11;98040.25;5091055;28;20218;-80
2022/04/07 08:21:00;;;;;;;0.40;0.40;;;;;;;11.52;68.80;98078.41;5098836;28;20265;-81
2022/04/07 08:23:26;;;;;;;0.30;0.30;;;;;;;11.42;68.69;98056.41;5099009;28;20268;-82
2022/04/07 08:25:53;;;;;;;1.13;0.37;;;;;;;11.46;68.38;98029.16;5098410;28;20266;-80
2022/04/07 08:28:19;;;;;;;0.40;0.30;;;;;;;11.47;67.59;98074.38;5098903;28;20631;-81
2022/04/07 08:30:46;;;;;;;0.57;0.30;;;;;;;11.51;68.51;98047.97;5099595;28;20204;-82
2022/04/07 08:33:14;;;;;;;0.70;0.30;;;;;;;11.54;68.37;98039.13;5098620;28;20226;-81
2022/04/07 08:35:40;;;;;;;0.30;0.30;;;;;;;11.36;68.15;98056.78;5098694;28;20215;-81
2022/04/07 08:38:06;;;;;;;0.23;0.20;;;;;;;11.39;70.37;98027.00;5098867;28;20238;-82
2022/04/07 08:40:36;;;;;;;1.80;0.37;;;;;;;11.37;71.51;97990.53;5098209;28;20204;-79
2022/04/07 08:43:02;;;;;;;0.40;0.30;;;;;;;11.19;69.39;97999.50;5098898;28;20235;-82
2022/04/07 08:45:30;;;;;;;0.60;0.40;;;;;;;11.17;71.25;97954.34;5098349;28;20731;-82
2022/04/07 08:47:58;;;;;;;0.33;0.30;;;;;;;11.13;71.44;97944.09;5092956;28;20210;-82
2022/04/07 08:50:27;;;;;;;0.97;0.40;;;;;;;11.13;71.40;97923.19;5096226;28;20228;-79
2022/04/07 08:52:54;;;;;;;1.60;0.30;;;;;;;11.05;71.45;97943.72;5098263;28;20213;-81
2022/04/07 08:55:21;;;;;;;0.50;0.40;;;;;;;11.00;72.27;97904.03;5098411;28;20212;-83
2022/04/07 08:57:47;;;;;;;0.67;0.40;;;;;;;10.92;72.54;97869.72;5098125;28;20206;-81
2022/04/07 09:00:16;;;;;;;1.23;0.37;;;;;;;10.81;73.71;97833.84;5098098;28;20262;-82
2022/04/07 09:02:43;;;;;;;0.50;0.30;;;;;;;10.79;74.52;97804.41;5099179;28;20713;-82
2022/04/07 09:05:11;;;;;;;0.73;0.20;;;;;;;10.67;75.03;97772.09;5097801;28;20261;-81
2022/04/07 09:07:40;;;;;;;0.30;0.30;;;;;;;10.45;76.63;97740.47;5098724;28;20261;-82
2022/04/07 09:10:07;;;;;;;0.37;0.30;;;;;;;10.24;78.81;97667.78;5097605;28;20605;-82
2022/04/07 09:12:38;;;;;;;1.03;0.20;;;;;;;10.08;78.90;97641.84;5099420;28;20206;-80
2022/04/07 09:15:05;;;;;;;0.30;0.30;;;;;;;10.02;80.35;97571.88;5098831;28;20311;-82
2022/04/07 09:17:33;;;;;;;0.20;0.20;;;;;;;10.02;81.52;97531.94;5097520;28;20334;-83
2022/04/07 09:19:59;;;;;;;0.30;0.30;;;;;;;9.90;82.57;97477.06;5091595;28;20280;-83
2022/04/07 09:22:29;;;;;;;0.67;0.27;;;;;;;9.92;82.15;97454.34;5077886;28;20270;-82
2022/04/07 09:24:59;;;;;;;0.20;0.17;;;;;;;9.86;82.26;97462.56;5078848;28;20211;-82
2022/04/07 09:27:26;;;;;;;0.43;0.30;;;;;;;9.95;84.26;97393.41;5078759;28;20214;-81
2022/04/07 09:29:55;;;;;;;0.40;0.30;;;;;;;10.06;84.95;97366.63;5082548;28;20230;-82
2022/04/07 09:32:23;;;;;;;0.23;0.20;;;;;;;10.07;83.93;97402.19;5080007;28;20203;-81
2022/04/07 09:34:53;;;;;;;0.43;0.20;;;;;;;10.04;83.62;97412.81;5077868;28;20201;-81
2022/04/07 09:37:21;;;;;;;0.27;0.27;;;;;;;9.97;84.54;97367.22;5078567;28;20287;-82
2022/04/07 09:39:48;;;;;;;0.30;0.30;;;;;;;9.83;84.79;97378.56;5078764;28;20716;-82
2022/04/07 09:42:20;;;;;;;0.77;0.30;;;;;;;9.61;85.93;97293.19;5078934;28;20227;-81
2022/04/07 09:44:51;;;;;;;0.30;0.30;;;;;;;9.47;86.31;97309.72;5079071;28;20243;-83
2022/04/07 09:47:18;;;;;;;0.97;0.20;;;;;;;9.42;88.03;97242.34;5081814;28;20269;-82
2022/04/07 09:49:50;;;;;;;0.80;0.43;;;;;;;9.40;90.42;97180.91;5101769;28;20718;-83
2022/04/07 09:52:20;;;;;;;1.40;0.50;;;;;;;9.48;90.68;97142.16;5102918;28;20290;-83
2022/04/07 09:54:50;;;;;;;0.70;0.30;;;;;;;9.62;91.56;97112.59;5100206;28;20196;-82
2022/04/07 09:57:20;;;;;;;0.80;0.30;;;;;;;9.75;89.85;97116.00;5099005;28;20216;-83
2022/04/07 09:59:49;;;;;;;0.63;0.30;;;;;;;9.89;91.82;97055.97;5098546;28;20231;-84
2022/04/07 10:02:17;;;;;;;0.70;0.30;;;;;;;9.96;90.01;97099.81;5098990;28;20232;-82
2022/04/07 10:04:45;;;;;;;0.40;0.30;;;;;;;10.10;88.31;97115.31;5097700;28;20551;-81
2022/04/07 10:07:12;;;;;;;0.27;0.27;;;;;;;10.27;87.39;97161.06;5098316;28;20201;-81
2022/04/07 10:09:40;;;;;;;0.20;0.20;;;;;;;10.45;86.50;97170.19;5098148;28;20219;-82
2022/04/07 10:12:07;;;;;;;0.20;0.20;;;;;;;10.46;87.02;97173.63;5097149;28;20226;-82
2022/04/07 10:14:36;;;;;;;0.20;0.20;;;;;;;10.52;85.42;97192.31;5097873;28;20654;-81
2022/04/07 10:17:03;;;;;;;0.23;0.23;;;;;;;10.46;85.96;97189.28;5098040;28;20204;-80
2022/04/07 10:19:35;;;;;;;0.63;0.30;;;;;;;10.37;85.15;97203.81;5097973;28;20258;-83
2022/04/07 10:22:31;;;;;;;0.30;0.30;;;;;;;10.29;86.54;97182.63;5098006;28;20212;-82
2022/04/07 10:25:02;;;;;;;0.53;0.30;;;;;;;10.22;85.79;97153.53;5097947;28;20671;-80
2022/04/07 10:27:33;;;;;;;1.30;0.30;;;;;;;10.06;88.30;97085.19;5098569;28;20214;-81
2022/04/07 10:30:10;;;;;;;0.97;0.40;;;;;;;10.03;88.78;97064.56;5097943;28;20334;-81
2022/04/07 10:32:42;;;;;;;0.30;0.30;;;;;;;9.97;88.54;97071.06;5098337;28;20202;-81
2022/04/07 10:35:10;;;;;;;0.30;0.30;;;;;;;9.99;87.63;97061.38;5097916;28;20269;-82
2022/04/07 10:37:47;;;;;;;0.60;0.40;;;;;;;10.17;89.50;97017.53;5097796;28;20225;-82
2022/04/07 10:40:33;;;;;;;1.80;0.40;;;;;;;10.25;88.33;97007.38;5097720;28;20211;-82
2022/04/07 10:43:18;;;;;;;3.10;0.40;;;;;;;10.42;89.35;96968.81;5097885;28;20251;-83
2022/04/07 10:45:47;;;;;;;0.50;0.30;;;;;;;10.38;89.80;97007.31;5096757;28;20572;-81
2022/04/07 10:48:18;;;;;;;0.87;0.30;;;;;;;10.24;87.65;97023.94;5097895;28;20290;-81
2022/04/07 10:50:47;;;;;;;0.40;0.40;;;;;;;10.25;87.62;97012.56;5081622;28;20217;-83
2022/04/07 10:53:21;;;;;;;0.20;0.20;;;;;;;10.29;88.16;97050.50;5081502;28;20246;-82
2022/04/07 10:55:55;;;;;;;0.30;0.30;;;;;;;10.28;88.86;97059.25;5077249;28;20340;-83
2022/04/07 10:58:24;;;;;;;0.50;0.33;;;;;;;10.26;89.43;97248.00;5078625;28;20266;-82
2022/04/07 11:00:52;;;;;;;1.63;0.50;;;;;;;8.60;83.88;97441.69;5078968;28;20240;-81
2022/04/07 11:03:19;;;;;;;2.93;0.53;;;;;;;6.88;84.27;97503.91;5093635;28;20224;-81
2022/04/07 11:05:53;;;;;;;1.50;0.20;;;;;;;5.00;88.91;97358.59;5100500;28;20254;-81
2022/04/07 11:08:24;;;;;;;2.37;0.50;;;;;;;4.74;92.58;97190.91;5103104;28;20226;-81
2022/04/07 11:10:55;;;;;;;1.17;0.20;;;;;;;4.61;95.02;97103.75;5103027;28;20200;-80
2022/04/07 11:13:41;;;;;;;2.13;0.40;;;;;;;4.75;96.07;97023.81;5100656;28;20200;-80
2022/04/07 11:16:18;;;;;;;2.57;0.20;;;;;;;4.57;97.27;97048.81;5100349;28;20196;-83
2022/04/07 11:19:00;;;;;;;1.03;0.20;;;;;;;4.82;98.28;97037.28;5087432;28;20648;-82
2022/04/07 11:21:27;;;;;;;0.67;0.20;;;;;;;4.97;97.51;97036.47;5077816;28;20201;-80
2022/04/07 11:23:56;;;;;;;0.60;0.20;;;;;;;5.01;96.88;97052.66;5076836;28;20349;-80
2022/04/07 11:26:27;;;;;;;1.27;0.40;;;;;;;4.96;95.77;97056.31;5078467;28;20612;-81
2022/04/07 11:29:06;;;;;;;0.63;0.27;;;;;;;5.10;96.36;97058.22;5078990;28;20236;-81
2022/04/07 11:31:48;;;;;;;0.20;0.20;;;;;;;4.85;95.64;97055.19;5079138;28;20210;-82
2022/04/07 11:35:00;;;;;;;2.00;0.20;;;;;;;4.72;96.10;97065.31;5077487;28;20205;-81
2022/04/07 11:37:26;;;;;;;0.37;0.33;;;;;;;4.89;96.84;97028.28;5078369;28;20210;-81
2022/04/07 11:39:54;;;;;;;0.63;0.40;;;;;;;5.15;97.48;96978.66;5078548;28;20227;-82
2022/04/07 11:42:22;;;;;;;0.53;0.20;;;;;;;5.47;98.51;96959.75;5077322;28;20205;-81
2022/04/07 11:44:49;;;;;;;0.40;0.30;;;;;;;5.78;99.20;96951.13;5077384;28;20249;-81